DAUH/HME METAR and TAF weather

Enter ICAO airport designator
Station Type Date Time Source
DAUH METAR 2021/07/29 02:00 UTC NOAA

DAUH 290200Z 05005KT CAVOK 30/07 Q1012


Station Type Date Time Source
DAUH Decoded METAR 2021/07/29 02:00 UTC NOAA

Hassi-Messaoud, Algeria (DAUH) 31-40N 006-09E 142M
Jul 28, 2021 - 10:00 PM EDT / 2021.07.29 0200 UTC
Wind: from the NE (050 degrees) at 6 MPH (5 KT):0
Visibility: greater than 7 mile(s):0
Temperature: 86 F (30 C)
Dew Point: 44 F (7 C)
Relative Humidity: 23%
Pressure (altimeter): 29.88 in. Hg (1012 hPa)
ob: DAUH 290200Z 05005KT CAVOK 30/07 Q1012
cycle: 2

Station Type Date Time Source
DAUH TAF 2021/07/28 18:33 UTC NOAA

TAF DAUH 281700Z 2818/2918 06010KT CAVOK

Example: see airport list